Terminal Aerodrome Forecast
Issued by NWS

Home | Current Version | Previous Version | Graphics & Text | Print | Product List | Glossary On
Versions: 1 2 3 4 5 6 7 8 9 10 11 12 13 14 15 16 17 18
000
FTUS43 KLSX 152300
TAFSUS
TAF
KSUS 152320Z 1600/1624 10010KT P6SM VCSH BKN050
     FM160300 VRB03KT P6SM SCT025 BKN040
     FM160900 00000KT 4SM BR SCT025 BKN040
      TEMPO 1609/1613 BKN025
     FM161500 VRB03KT P6SM SCT025 BKN040=

USA.gov is the U.S. government's official web portal to all federal, state and local government web resources and services.